createdAt,value
2022-11-24T00:00:35.489Z,99007.28
2022-11-24T00:03:04.765Z,99005.16
2022-11-24T00:05:31.284Z,99011.00
2022-11-24T00:07:57.934Z,99008.78
2022-11-24T00:10:24.516Z,99003.72
2022-11-24T00:12:50.978Z,99004.69
2022-11-24T00:15:18.317Z,99000.88
2022-11-24T00:17:45.520Z,99007.97
2022-11-24T00:20:12.145Z,99011.00
2022-11-24T00:22:39.535Z,99009.19
2022-11-24T00:25:06.967Z,99011.72
2022-11-24T00:27:33.950Z,99016.69
2022-11-24T00:30:00.674Z,99019.22
2022-11-24T00:32:30.909Z,99016.41
2022-11-24T00:34:57.422Z,99020.44
2022-11-24T00:37:25.033Z,99020.81
2022-11-24T00:39:51.989Z,99028.38
2022-11-24T00:42:19.476Z,99021.03
2022-11-24T00:44:46.771Z,99020.91
2022-11-24T00:47:14.366Z,99026.69
2022-11-24T00:49:41.991Z,99027.03
2022-11-24T00:52:08.755Z,99027.47
2022-11-24T00:54:35.512Z,99030.88
2022-11-24T00:57:02.058Z,99031.28
2022-11-24T00:59:29.177Z,99040.41
2022-11-24T01:01:57.082Z,99033.63
2022-11-24T01:04:24.351Z,99036.75
2022-11-24T01:06:51.166Z,99032.78
2022-11-24T01:09:18.920Z,99036.22
2022-11-24T01:12:04.450Z,99044.38
2022-11-24T01:14:32.900Z,99045.31
2022-11-24T01:16:59.869Z,99043.75
2022-11-24T01:19:26.691Z,99058.31
2022-11-24T01:21:53.247Z,99051.88
2022-11-24T01:24:19.768Z,99053.78
2022-11-24T01:26:46.312Z,99059.78
2022-11-24T01:29:13.191Z,99063.19
2022-11-24T01:31:40.081Z,99070.03
2022-11-24T01:34:06.647Z,99072.38
2022-11-24T01:36:33.606Z,99079.88
2022-11-24T01:39:00.049Z,99070.72
2022-11-24T01:41:27.243Z,99078.31
2022-11-24T01:43:55.271Z,99078.31
2022-11-24T01:46:34.897Z,99072.00
2022-11-24T01:49:13.399Z,99086.38
2022-11-24T01:51:47.201Z,99077.50
2022-11-24T01:54:20.895Z,99077.59
2022-11-24T01:56:49.707Z,99086.47
2022-11-24T01:59:17.002Z,99080.03
2022-11-24T02:01:43.705Z,99079.16
2022-11-24T02:04:13.391Z,99077.91
2022-11-24T02:06:40.880Z,99085.72
2022-11-24T02:09:17.005Z,99079.59
2022-11-24T02:11:44.697Z,99086.97
2022-11-24T02:14:13.112Z,99082.63
2022-11-24T02:16:41.558Z,99085.06
2022-11-24T02:19:15.166Z,99090.91
2022-11-24T02:21:41.686Z,99087.38
2022-11-24T02:24:21.424Z,99081.03
2022-11-24T02:26:49.055Z,99095.84
2022-11-24T02:29:15.878Z,99096.06
2022-11-24T02:31:47.836Z,99091.41
2022-11-24T02:34:14.389Z,99100.63
2022-11-24T02:36:41.044Z,99083.19
2022-11-24T02:39:14.719Z,99088.88
2022-11-24T02:41:57.258Z,99095.53
2022-11-24T02:44:27.012Z,99096.47
2022-11-24T02:47:05.162Z,99098.59
2022-11-24T02:49:31.742Z,99100.28
2022-11-24T02:51:58.497Z,99097.75
2022-11-24T02:54:25.294Z,99100.50
2022-11-24T02:56:52.205Z,99106.03
2022-11-24T02:59:18.823Z,99103.06
2022-11-24T03:01:45.436Z,99106.44
2022-11-24T03:04:12.776Z,99107.91
2022-11-24T03:06:39.453Z,99106.84
2022-11-24T03:09:06.566Z,99112.44
2022-11-24T03:11:33.264Z,99103.25
2022-11-24T03:13:59.855Z,99098.34
2022-11-24T03:16:26.450Z,99106.69
2022-11-24T03:18:53.721Z,99106.69
2022-11-24T03:21:20.594Z,99106.59
2022-11-24T03:23:47.153Z,99103.00
2022-11-24T03:26:16.574Z,99104.34
2022-11-24T03:28:43.065Z,99111.44
2022-11-24T03:31:10.443Z,99111.03
2022-11-24T03:33:37.506Z,99114.13
2022-11-24T03:36:05.641Z,99125.19
2022-11-24T03:38:32.294Z,99117.91
2022-11-24T03:40:58.783Z,99116.31
2022-11-24T03:43:25.617Z,99119.81
2022-11-24T03:45:52.058Z,99123.44
2022-11-24T03:48:21.159Z,99126.50
2022-11-24T03:50:58.940Z,99122.88
2022-11-24T03:53:27.292Z,99129.31
2022-11-24T03:55:54.416Z,99137.66
2022-11-24T03:58:21.307Z,99131.47
2022-11-24T04:00:52.225Z,99138.75
2022-11-24T04:03:19.227Z,99137.50
2022-11-24T04:05:46.363Z,99140.84
2022-11-24T04:08:13.150Z,99147.53
2022-11-24T04:10:40.135Z,99145.84
2022-11-24T04:13:15.171Z,99138.34
2022-11-24T04:15:42.319Z,99148.38
2022-11-24T04:18:09.846Z,99147.09
2022-11-24T04:20:36.874Z,99151.44
2022-11-24T04:23:03.789Z,99155.56
2022-11-24T04:25:30.504Z,99148.91
2022-11-24T04:27:57.285Z,99154.84
2022-11-24T04:30:25.053Z,99159.06
2022-11-24T04:32:51.676Z,99158.00
2022-11-24T04:35:18.408Z,99159.91
2022-11-24T04:37:45.185Z,99167.31
2022-11-24T04:40:12.544Z,99173.44
2022-11-24T04:42:39.119Z,99172.78
2022-11-24T04:45:06.523Z,99177.03
2022-11-24T04:47:33.194Z,99173.75
2022-11-24T04:50:00.282Z,99181.44
2022-11-24T04:52:27.036Z,99183.03
2022-11-24T04:54:53.631Z,99185.06
2022-11-24T04:57:22.471Z,99185.25
2022-11-24T04:59:50.049Z,99196.56
2022-11-24T05:02:16.683Z,99189.81
2022-11-24T05:04:43.269Z,99189.38
2022-11-24T05:07:17.670Z,99193.72
2022-11-24T05:10:03.445Z,99201.28
2022-11-24T05:12:32.576Z,99200.66
2022-11-24T05:14:59.777Z,99194.47
2022-11-24T05:17:31.067Z,99197.88
2022-11-24T05:19:57.969Z,99200.16
2022-11-24T05:22:24.699Z,99204.78
2022-11-24T05:24:51.348Z,99205.72
2022-11-24T05:27:18.084Z,99210.03
2022-11-24T05:29:44.679Z,99212.56
2022-11-24T05:32:11.218Z,99212.94
2022-11-24T05:34:37.798Z,99215.06
2022-11-24T05:37:04.511Z,99222.91
2022-11-24T05:39:35.363Z,99221.63
2022-11-24T05:42:25.681Z,99225.03
2022-11-24T05:44:52.961Z,99224.16
2022-11-24T05:47:19.927Z,99220.69
2022-11-24T05:49:46.386Z,99220.28
2022-11-24T05:52:14.381Z,99232.75
2022-11-24T05:54:41.504Z,99235.31
2022-11-24T05:57:08.039Z,99230.63
2022-11-24T05:59:34.638Z,99232.75
2022-11-24T06:02:01.430Z,99238.66
2022-11-24T06:04:28.055Z,99238.44
2022-11-24T06:06:54.592Z,99246.59
2022-11-24T06:09:21.221Z,99254.47
2022-11-24T06:11:48.397Z,99252.13
2022-11-24T06:14:15.045Z,99257.09
2022-11-24T06:16:41.760Z,99260.16
2022-11-24T06:19:10.055Z,99273.50
2022-11-24T06:21:36.743Z,99272.16
2022-11-24T06:24:03.457Z,99269.47
2022-11-24T06:26:29.868Z,99276.00
2022-11-24T06:28:56.310Z,99269.97
2022-11-24T06:31:23.308Z,99274.31
2022-11-24T06:33:49.870Z,99276.00
2022-11-24T06:36:16.368Z,99283.31
2022-11-24T06:38:43.228Z,99279.63
2022-11-24T06:41:12.432Z,99289.31
2022-11-24T06:43:38.918Z,99291.69
2022-11-24T06:46:05.657Z,99290.63
2022-11-24T06:48:32.370Z,99298.66
2022-11-24T06:51:00.192Z,99298.84
2022-11-24T06:53:27.148Z,99304.41
2022-11-24T06:55:53.688Z,99300.88
2022-11-24T06:58:20.131Z,99304.41
2022-11-24T07:00:46.637Z,99311.00
2022-11-24T07:03:16.059Z,99316.16
2022-11-24T07:05:43.739Z,99313.59
2022-11-24T07:08:16.149Z,99312.13
2022-11-24T07:10:44.184Z,99318.78
2022-11-24T07:13:10.748Z,99321.78
2022-11-24T07:15:37.178Z,99325.28
2022-11-24T07:18:03.998Z,99318.50
2022-11-24T07:20:30.419Z,99316.81
2022-11-24T07:22:57.898Z,99324.97
2022-11-24T07:25:27.928Z,99319.09
2022-11-24T07:27:58.624Z,99322.44
2022-11-24T07:30:25.973Z,99319.78
2022-11-24T07:32:52.784Z,99326.91
2022-11-24T07:35:19.299Z,99323.69
2022-11-24T07:37:45.736Z,99329.94
2022-11-24T07:40:12.488Z,99326.75
2022-11-24T07:42:38.889Z,99326.84
2022-11-24T07:45:05.742Z,99340.47
2022-11-24T07:47:32.180Z,99347.13
2022-11-24T07:49:58.680Z,99341.16
2022-11-24T07:52:26.651Z,99349.31
2022-11-24T07:54:53.383Z,99352.09
2022-11-24T07:57:19.838Z,99342.09
2022-11-24T07:59:46.408Z,99340.97
2022-11-24T08:02:13.240Z,99341.59
2022-11-24T08:04:39.721Z,99345.72
2022-11-24T08:07:06.135Z,99348.31
2022-11-24T08:09:32.549Z,99350.22
2022-11-24T08:11:59.005Z,99354.13
2022-11-24T08:14:25.774Z,99347.47
2022-11-24T08:16:52.284Z,99347.53
2022-11-24T08:19:18.777Z,99338.09
2022-11-24T08:21:45.233Z,99345.81
2022-11-24T08:24:13.855Z,99342.81
2022-11-24T08:26:40.357Z,99346.44
2022-11-24T08:29:07.006Z,99346.91
2022-11-24T08:31:34.930Z,99343.50
2022-11-24T08:34:03.752Z,99351.25
2022-11-24T08:36:30.304Z,99353.66
2022-11-24T08:38:58.568Z,99340.22
2022-11-24T08:41:26.154Z,99340.09
2022-11-24T08:43:53.732Z,99353.22
2022-11-24T08:46:20.916Z,99349.97
2022-11-24T08:48:48.922Z,99361.78
2022-11-24T08:51:18.046Z,99353.94
2022-11-24T08:53:44.922Z,99364.03
2022-11-24T08:56:13.039Z,99353.34
2022-11-24T08:58:39.999Z,99356.03
2022-11-24T09:01:16.841Z,99355.56
2022-11-24T09:03:50.047Z,99352.31
2022-11-24T09:06:23.442Z,99358.41
2022-11-24T09:08:50.042Z,99362.56
2022-11-24T09:11:17.236Z,99365.72
2022-11-24T09:13:43.820Z,99362.09
2022-11-24T09:16:12.888Z,99367.72
2022-11-24T09:18:40.100Z,99370.00
2022-11-24T09:21:12.222Z,99374.53
2022-11-24T09:23:39.526Z,99363.69
2022-11-24T09:26:08.144Z,99367.91
2022-11-24T09:28:34.746Z,99365.50
2022-11-24T09:31:03.011Z,99377.94
2022-11-24T09:33:31.451Z,99367.66
2022-11-24T09:35:58.541Z,99364.53
2022-11-24T09:38:25.133Z,99366.88
2022-11-24T09:40:52.965Z,99365.28
2022-11-24T09:43:45.069Z,99359.66
2022-11-24T09:46:16.873Z,99357.28
2022-11-24T09:48:47.075Z,99365.63
2022-11-24T09:51:14.703Z,99363.31
2022-11-24T09:53:44.719Z,99367.13
2022-11-24T09:56:24.238Z,99373.31
2022-11-24T09:58:52.326Z,99375.81
2022-11-24T10:01:26.652Z,99376.41
2022-11-24T10:03:54.184Z,99379.19
2022-11-24T10:06:22.727Z,99379.31
2022-11-24T10:09:26.832Z,99373.88
2022-11-24T10:12:15.878Z,99373.94
2022-11-24T10:14:53.725Z,99377.41
2022-11-24T10:17:51.531Z,99370.81
2022-11-24T10:20:59.598Z,99377.47
2022-11-24T10:23:44.685Z,99379.41
2022-11-24T10:26:33.206Z,99389.22
2022-11-24T10:28:59.708Z,99387.69
2022-11-24T10:31:34.698Z,99394.22
2022-11-24T10:34:13.209Z,99394.56
2022-11-24T10:37:10.368Z,99389.41
2022-11-24T10:40:17.175Z,99391.91
2022-11-24T10:42:55.603Z,99390.47
2022-11-24T10:45:22.488Z,99388.56
2022-11-24T10:47:49.573Z,99384.34
2022-11-24T10:50:31.705Z,99379.38
2022-11-24T10:53:04.444Z,99385.94
2022-11-24T10:55:58.805Z,99390.28
2022-11-24T10:58:36.036Z,99377.84
2022-11-24T11:01:13.327Z,99379.81
2022-11-24T11:03:50.071Z,99378.63
2022-11-24T11:06:25.302Z,99383.06
2022-11-24T11:09:24.416Z,99379.63
2022-11-24T11:11:53.393Z,99386.13
2022-11-24T11:14:31.845Z,99384.28
2022-11-24T11:16:58.947Z,99383.78
2022-11-24T11:19:51.833Z,99374.41
2022-11-24T11:22:25.334Z,99387.50
2022-11-24T11:25:05.894Z,99376.22
2022-11-24T11:27:32.358Z,99377.72
2022-11-24T11:36:13.068Z,99405.88
2022-11-24T11:38:40.871Z,99406.13
2022-11-24T11:41:14.129Z,99403.75
2022-11-24T11:43:41.107Z,99413.16
2022-11-24T11:46:13.325Z,99407.44
2022-11-24T11:48:44.053Z,99409.69
2022-11-24T11:51:26.274Z,99410.81
2022-11-24T11:54:25.823Z,99408.84
2022-11-24T11:57:12.007Z,99410.94
2022-11-24T11:59:48.579Z,99411.75
2022-11-24T12:02:48.458Z,99409.88
2022-11-24T12:05:47.974Z,99425.63
2022-11-24T12:09:03.405Z,99421.41
2022-11-24T12:11:38.802Z,99421.56
2022-11-24T12:14:20.229Z,99418.38
2022-11-24T12:17:09.356Z,99422.81
2022-11-24T12:19:38.806Z,99429.16
2022-11-24T12:22:26.247Z,99425.69
2022-11-24T12:25:11.584Z,99424.97
2022-11-24T12:27:47.325Z,99421.03
2022-11-24T12:30:18.015Z,99424.69
2022-11-24T12:33:00.183Z,99426.38
2022-11-24T12:35:46.756Z,99426.06
2022-11-24T12:38:41.988Z,99426.81
2022-11-24T12:41:41.280Z,99425.25
2022-11-24T12:44:35.531Z,99427.13
2022-11-24T12:47:19.270Z,99423.84
2022-11-24T12:49:48.720Z,99422.13
2022-11-24T12:52:26.670Z,99429.69
2022-11-24T12:54:53.434Z,99437.31
2022-11-24T12:57:23.100Z,99435.44
2022-11-24T13:00:04.391Z,99437.88
2022-11-24T13:02:49.832Z,99435.44
2022-11-24T13:05:20.127Z,99434.00
2022-11-24T13:07:49.345Z,99438.22
2022-11-24T13:10:55.234Z,99437.69
2022-11-24T13:13:12.899Z,99445.78
2022-11-24T13:17:06.165Z,99439.44
2022-11-24T13:18:54.079Z,99453.50
2022-11-24T13:21:50.264Z,99447.00
2022-11-24T13:24:17.853Z,99454.34
2022-11-24T13:26:49.666Z,99453.41
2022-11-24T13:29:28.801Z,99456.22
2022-11-24T13:32:04.654Z,99457.22
2022-11-24T13:34:43.463Z,99459.59
2022-11-24T13:37:31.243Z,99459.53
2022-11-24T13:40:11.237Z,99465.75
2022-11-24T13:42:56.218Z,99469.59
2022-11-24T13:45:50.263Z,99471.91
2022-11-24T13:48:20.367Z,99472.69
2022-11-24T13:50:50.074Z,99475.28
2022-11-24T13:53:33.416Z,99481.88
2022-11-24T13:56:02.839Z,99479.94
2022-11-24T13:58:48.217Z,99486.75
2022-11-24T14:01:28.449Z,99483.66
2022-11-24T14:04:29.956Z,99479.19
2022-11-24T14:07:07.020Z,99487.50
2022-11-24T14:09:42.885Z,99482.84
2022-11-24T14:12:23.638Z,99487.66
2022-11-24T14:14:56.584Z,99484.59
2022-11-24T14:17:24.938Z,99492.47
2022-11-24T14:19:54.290Z,99492.63
2022-11-24T14:22:39.557Z,99495.56
2022-11-24T14:25:06.680Z,99492.34
2022-11-24T14:27:38.008Z,99495.16
2022-11-24T14:30:21.801Z,99484.59
2022-11-24T14:33:00.264Z,99483.75
2022-11-24T14:35:36.155Z,99493.88
2022-11-24T14:38:04.958Z,99490.22
2022-11-24T14:40:47.031Z,99497.53
2022-11-24T14:43:19.585Z,99498.09
2022-11-24T14:46:12.398Z,99506.69
2022-11-24T14:48:47.113Z,99509.94
2022-11-24T14:51:28.636Z,99517.50
2022-11-24T14:53:57.991Z,99519.78
2022-11-24T14:56:38.135Z,99532.59
2022-11-24T14:59:20.899Z,99528.50
2022-11-24T15:01:47.479Z,99533.56
2022-11-24T15:07:26.628Z,99535.41
2022-11-24T15:09:58.783Z,99534.56
2022-11-24T15:12:36.600Z,99542.84
2022-11-24T15:15:15.379Z,99539.34
2022-11-24T15:17:47.203Z,99543.56
2022-11-24T15:20:26.483Z,99540.88
2022-11-24T15:23:19.096Z,99543.00
2022-11-24T15:25:47.283Z,99544.81
2022-11-24T15:28:13.647Z,99551.28
2022-11-24T15:30:40.026Z,99549.47
2022-11-24T15:33:15.696Z,99550.75
2022-11-24T15:35:42.619Z,99559.47
2022-11-24T15:38:09.690Z,99553.84
2022-11-24T15:40:37.716Z,99558.59
2022-11-24T15:43:27.003Z,99565.94
2022-11-24T15:45:53.486Z,99555.53
2022-11-24T15:48:20.014Z,99566.22
2022-11-24T15:50:47.128Z,99569.59
2022-11-24T15:53:22.047Z,99573.81
2022-11-24T15:55:48.849Z,99572.56
2022-11-24T15:58:15.562Z,99571.00
2022-11-24T16:00:43.296Z,99577.47
2022-11-24T16:03:44.591Z,99574.94
2022-11-24T16:05:57.298Z,99571.56
2022-11-24T16:08:23.851Z,99567.59
2022-11-24T16:10:51.256Z,99581.66
2022-11-24T16:13:17.716Z,99580.53
2022-11-24T16:15:45.558Z,99578.81
2022-11-24T16:18:13.865Z,99577.78
2022-11-24T16:20:40.374Z,99589.44
2022-11-24T16:23:06.859Z,99588.19
2022-11-24T16:25:33.332Z,99586.59
2022-11-24T16:27:59.772Z,99590.09
2022-11-24T16:30:26.358Z,99590.47
2022-11-24T16:32:52.827Z,99601.09
2022-11-24T16:35:20.056Z,99606.25
2022-11-24T16:37:51.600Z,99598.19
2022-11-24T16:40:18.398Z,99601.09
2022-11-24T16:42:44.882Z,99600.38
2022-11-24T16:45:12.924Z,99602.88
2022-11-24T16:47:42.880Z,99602.03
2022-11-24T16:50:10.727Z,99602.16
2022-11-24T16:52:38.254Z,99599.53
2022-11-24T16:55:06.417Z,99600.25
2022-11-24T16:57:32.906Z,99605.47
2022-11-24T16:59:59.390Z,99608.59
2022-11-24T17:02:25.832Z,99611.97
2022-11-24T17:04:53.023Z,99613.66
2022-11-24T17:07:20.815Z,99608.06
2022-11-24T17:09:48.257Z,99608.91
2022-11-24T17:12:14.684Z,99609.75
2022-11-24T17:14:42.273Z,99614.97
2022-11-24T17:17:08.720Z,99622.00
2022-11-24T17:19:35.326Z,99614.53
2022-11-24T17:22:01.791Z,99621.47
2022-11-24T17:24:28.575Z,99616.97
2022-11-24T17:26:55.050Z,99628.97
2022-11-24T17:29:22.576Z,99628.00
2022-11-24T17:31:49.056Z,99629.63
2022-11-24T17:34:16.873Z,99625.53
2022-11-24T17:36:46.077Z,99621.03
2022-11-24T17:39:12.642Z,99621.75
2022-11-24T17:41:39.220Z,99624.94
2022-11-24T17:44:08.461Z,99625.06
2022-11-24T17:46:35.772Z,99629.03
2022-11-24T17:49:02.357Z,99637.31
2022-11-24T17:51:28.776Z,99640.81
2022-11-24T17:53:57.312Z,99646.28
2022-11-24T17:56:27.886Z,99652.75
2022-11-24T17:58:59.229Z,99641.41
2022-11-24T18:01:26.724Z,99646.19
2022-11-24T18:03:54.352Z,99643.38
2022-11-24T18:06:24.096Z,99645.34
2022-11-24T18:08:51.007Z,99646.41
2022-11-24T18:11:25.991Z,99651.81
2022-11-24T18:14:01.138Z,99651.47
2022-11-24T18:16:30.245Z,99656.09
2022-11-24T18:19:14.071Z,99650.50
2022-11-24T18:21:41.188Z,99661.44
2022-11-24T18:24:12.014Z,99665.72
2022-11-24T18:26:40.137Z,99669.19
2022-11-24T18:29:06.610Z,99674.78
2022-11-24T18:31:35.396Z,99673.09
2022-11-24T18:34:03.324Z,99671.53
2022-11-24T18:36:30.710Z,99676.13
2022-11-24T18:39:01.062Z,99677.69
2022-11-24T18:41:27.567Z,99685.59
2022-11-24T18:43:55.766Z,99677.03
2022-11-24T18:46:22.306Z,99684.22
2022-11-24T18:48:49.115Z,99678.22
2022-11-24T18:51:15.758Z,99678.56
2022-11-24T18:53:43.436Z,99675.50
2022-11-24T18:56:16.154Z,99671.72
2022-11-24T18:58:43.502Z,99672.78
2022-11-24T19:01:12.965Z,99671.41
2022-11-24T19:03:48.564Z,99676.22
2022-11-24T19:06:19.816Z,99670.88
2022-11-24T19:08:47.333Z,99675.91
2022-11-24T19:11:35.776Z,99671.06
2022-11-24T19:14:04.337Z,99669.47
2022-11-24T19:16:30.969Z,99672.00
2022-11-24T19:19:02.406Z,99674.53
2022-11-24T19:21:33.502Z,99678.59
2022-11-24T19:24:04.803Z,99677.25
2022-11-24T19:26:32.144Z,99686.22
2022-11-24T19:28:58.593Z,99689.94
2022-11-24T19:31:30.297Z,99692.88
2022-11-24T19:33:58.633Z,99690.91
2022-11-24T19:36:26.179Z,99693.53
2022-11-24T19:38:54.967Z,99698.53
2022-11-24T19:41:25.225Z,99697.25
2022-11-24T19:43:55.166Z,99700.88
2022-11-24T19:46:22.948Z,99699.00
2022-11-24T19:48:50.727Z,99697.97
2022-11-24T19:51:23.474Z,99699.06
2022-11-24T19:53:50.098Z,99699.78
2022-11-24T19:56:18.947Z,99703.06
2022-11-24T19:58:47.485Z,99703.06
2022-11-24T20:01:16.079Z,99709.38
2022-11-24T20:03:44.505Z,99714.28
2022-11-24T20:06:13.002Z,99721.91
2022-11-24T20:08:40.289Z,99712.53
2022-11-24T20:11:12.252Z,99728.31
2022-11-24T20:13:40.209Z,99721.13
2022-11-24T20:16:10.124Z,99723.53
2022-11-24T20:18:42.001Z,99724.41
2022-11-24T20:21:11.461Z,99727.19
2022-11-24T20:23:38.519Z,99729.28
2022-11-24T20:26:11.960Z,99725.88
2022-11-24T20:28:39.096Z,99738.97
2022-11-24T20:31:08.609Z,99738.97
2022-11-24T20:33:35.746Z,99737.28
2022-11-24T20:36:07.613Z,99738.97
2022-11-24T20:38:34.631Z,99737.28
2022-11-24T20:41:08.605Z,99741.41
2022-11-24T20:43:36.633Z,99746.19
2022-11-24T20:46:14.601Z,99751.97
2022-11-24T20:48:41.386Z,99755.75
2022-11-24T20:51:10.815Z,99750.84
2022-11-24T20:53:37.744Z,99754.75
2022-11-24T20:56:22.026Z,99758.66
2022-11-24T20:58:48.821Z,99759.38
2022-11-24T21:01:18.729Z,99761.31
2022-11-24T21:03:46.495Z,99760.28
2022-11-24T21:06:14.389Z,99758.31
2022-11-24T21:08:42.126Z,99755.34
2022-11-24T21:11:11.068Z,99762.34
2022-11-24T21:13:38.533Z,99768.63
2022-11-24T21:16:19.328Z,99767.88
2022-11-24T21:18:47.557Z,99770.19
2022-11-24T21:21:14.476Z,99775.91
2022-11-24T21:23:40.920Z,99774.06
2022-11-24T21:26:13.154Z,99770.56
2022-11-24T21:28:43.570Z,99775.66
2022-11-24T21:31:15.490Z,99774.06
2022-11-24T21:33:44.780Z,99778.44
2022-11-24T21:36:12.065Z,99772.38
2022-11-24T21:38:38.462Z,99776.63
2022-11-24T21:41:06.755Z,99772.34
2022-11-24T21:43:33.740Z,99778.97
2022-11-24T21:46:05.721Z,99781.44
2022-11-24T21:48:33.329Z,99776.25
2022-11-24T21:51:02.071Z,99780.47
2022-11-24T21:53:33.664Z,99781.31
2022-11-24T21:56:06.872Z,99787.03
2022-11-24T21:58:33.504Z,99788.78
2022-11-24T22:01:04.915Z,99791.22
2022-11-24T22:03:31.819Z,99785.00
2022-11-24T22:05:59.947Z,99781.97
2022-11-24T22:08:27.464Z,99790.94
2022-11-24T22:10:54.154Z,99792.38
2022-11-24T22:13:20.534Z,99798.38
2022-11-24T22:15:47.128Z,99795.53
2022-11-24T22:18:13.544Z,99790.19
2022-11-24T22:20:39.965Z,99790.91
2022-11-24T22:23:06.399Z,99791.88
2022-11-24T22:25:33.612Z,99785.69
2022-11-24T22:28:00.058Z,99787.50
2022-11-24T22:30:26.539Z,99796.94
2022-11-24T22:32:53.577Z,99797.91
2022-11-24T22:35:20.040Z,99794.72
2022-11-24T22:37:46.433Z,99801.69
2022-11-24T22:40:12.923Z,99798.09
2022-11-24T22:42:39.767Z,99808.19
2022-11-24T22:45:06.918Z,99808.88
2022-11-24T22:47:33.292Z,99813.03
2022-11-24T22:49:59.816Z,99811.78
2022-11-24T22:52:26.197Z,99811.34
2022-11-24T22:54:53.171Z,99812.44
2022-11-24T22:57:19.659Z,99814.97
2022-11-24T22:59:46.248Z,99816.28
2022-11-24T23:02:12.856Z,99812.94
2022-11-24T23:04:39.344Z,99819.28
2022-11-24T23:07:05.760Z,99823.97
2022-11-24T23:09:32.955Z,99833.34
2022-11-24T23:11:59.611Z,99837.63
2022-11-24T23:14:26.737Z,99841.75
2022-11-24T23:16:54.155Z,99831.31
2022-11-24T23:19:20.559Z,99836.19
2022-11-24T23:21:47.103Z,99829.25
2022-11-24T23:24:13.715Z,99831.56
2022-11-24T23:26:41.040Z,99838.50
2022-11-24T23:29:08.211Z,99830.84
2022-11-24T23:31:35.434Z,99836.13
2022-11-24T23:34:03.293Z,99834.50
2022-11-24T23:36:30.787Z,99841.41
2022-11-24T23:39:02.310Z,99841.41
2022-11-24T23:41:30.037Z,99844.34
2022-11-24T23:43:56.482Z,99836.84
2022-11-24T23:46:23.914Z,99842.03
2022-11-24T23:48:51.662Z,99844.00
2022-11-24T23:51:20.386Z,99847.63
2022-11-24T23:53:46.864Z,99843.25
2022-11-24T23:56:33.686Z,99843.88
2022-11-24T23:59:01.178Z,99846.41
